createdAt,value
2023-05-10T00:01:06.551Z,2.45
2023-05-10T00:03:35.058Z,2.75
2023-05-10T00:06:03.792Z,3.00
2023-05-10T00:08:33.820Z,2.50
2023-05-10T00:11:02.680Z,2.60
2023-05-10T00:13:31.286Z,2.70
2023-05-10T00:16:00.263Z,1.98
2023-05-10T00:18:28.864Z,2.58
2023-05-10T00:20:57.456Z,2.65
2023-05-10T00:23:25.950Z,3.35
2023-05-10T00:25:55.843Z,3.92
2023-05-10T00:28:24.650Z,4.68
2023-05-10T00:30:53.154Z,4.65
2023-05-10T00:33:21.728Z,4.82
2023-05-10T00:35:50.186Z,4.68
2023-05-10T00:38:18.708Z,2.97
2023-05-10T00:40:47.307Z,4.15
2023-05-10T00:43:25.387Z,3.80
2023-05-10T00:45:54.588Z,4.55
2023-05-10T00:48:24.135Z,4.82
2023-05-10T00:50:52.901Z,4.35
2023-05-10T00:53:21.451Z,4.15
2023-05-10T00:55:50.242Z,3.13
2023-05-10T00:58:19.123Z,3.08
2023-05-10T01:00:49.576Z,3.05
2023-05-10T01:03:18.407Z,2.50
2023-05-10T01:05:47.030Z,2.50
2023-05-10T01:08:15.816Z,2.38
2023-05-10T01:10:45.307Z,1.90
2023-05-10T01:13:14.903Z,1.85
2023-05-10T01:15:46.899Z,2.33
2023-05-10T01:18:19.535Z,1.92
2023-05-10T01:20:51.274Z,2.30
2023-05-10T01:23:38.981Z,2.20
2023-05-10T01:26:33.740Z,2.65
2023-05-10T01:29:39.299Z,2.70
2023-05-10T01:32:23.880Z,2.20
2023-05-10T01:35:02.148Z,2.08
2023-05-10T01:37:39.856Z,2.90
2023-05-10T01:40:19.848Z,3.03
2023-05-10T01:42:52.902Z,2.70
2023-05-10T01:45:29.751Z,2.75
2023-05-10T01:48:08.733Z,3.20
2023-05-10T01:50:40.050Z,3.78
2023-05-10T01:55:47.626Z,3.47
2023-05-10T01:58:19.459Z,3.33
2023-05-10T02:00:49.708Z,4.00
2023-05-10T02:03:22.871Z,3.83
2023-05-10T02:05:53.054Z,4.40
2023-05-10T02:08:25.030Z,3.78
2023-05-10T02:10:56.853Z,3.53
2023-05-10T02:13:27.254Z,4.07
2023-05-10T02:15:57.384Z,4.30
2023-05-10T02:18:29.405Z,3.38
2023-05-10T02:20:59.191Z,3.58
2023-05-10T02:23:28.911Z,3.30
2023-05-10T02:25:59.569Z,3.67
2023-05-10T02:28:29.241Z,4.32
2023-05-10T02:30:58.436Z,4.43
2023-05-10T02:33:30.360Z,3.90
2023-05-10T02:35:59.642Z,4.95
2023-05-10T02:38:29.311Z,4.10
2023-05-10T02:41:00.554Z,4.38
2023-05-10T02:43:32.538Z,4.23
2023-05-10T02:46:01.242Z,4.63
2023-05-10T02:48:31.904Z,4.35
2023-05-10T02:51:07.139Z,4.50
2023-05-10T02:53:41.117Z,4.50
2023-05-10T02:56:15.381Z,5.70
2023-05-10T02:58:43.859Z,4.85
2023-05-10T03:01:12.557Z,5.22
2023-05-10T03:03:43.028Z,4.43
2023-05-10T03:06:11.964Z,5.28
2023-05-10T03:08:40.993Z,4.57
2023-05-10T03:11:42.293Z,5.05
2023-05-10T03:14:20.844Z,5.53
2023-05-10T03:16:58.990Z,5.18
2023-05-10T03:19:32.889Z,4.88
2023-05-10T03:22:06.559Z,5.28
2023-05-10T03:24:39.066Z,5.53
2023-05-10T03:27:09.744Z,5.47
2023-05-10T03:29:40.670Z,5.15
2023-05-10T03:32:09.496Z,4.97
2023-05-10T03:34:44.735Z,4.97
2023-05-10T03:37:13.677Z,4.53
2023-05-10T03:39:42.790Z,5.82
2023-05-10T03:42:13.511Z,4.95
2023-05-10T03:44:42.447Z,5.18
2023-05-10T03:47:11.156Z,5.28
2023-05-10T03:49:41.272Z,4.93
2023-05-10T03:52:10.154Z,4.40
2023-05-10T03:54:38.813Z,4.25
2023-05-10T03:57:07.601Z,4.18
2023-05-10T03:59:36.631Z,4.10
2023-05-10T04:02:05.246Z,4.43
2023-05-10T04:04:33.996Z,5.40
2023-05-10T04:07:04.098Z,3.72
2023-05-10T04:09:32.706Z,3.75
2023-05-10T04:12:01.610Z,4.20
2023-05-10T04:14:30.351Z,4.00
2023-05-10T04:16:58.960Z,4.78
2023-05-10T04:19:31.831Z,5.15
2023-05-10T04:22:00.504Z,4.13
2023-05-10T04:24:30.590Z,4.93
2023-05-10T04:26:59.107Z,4.72
2023-05-10T04:29:30.388Z,4.05
2023-05-10T04:31:59.106Z,3.67
2023-05-10T04:34:27.748Z,3.97
2023-05-10T04:36:56.460Z,4.15
2023-05-10T04:39:25.154Z,3.95
2023-05-10T04:41:55.145Z,3.92
2023-05-10T04:44:23.813Z,3.92
2023-05-10T04:46:52.332Z,3.70
2023-05-10T04:49:21.178Z,3.85
2023-05-10T04:51:49.672Z,4.28
2023-05-10T04:54:18.465Z,4.65
2023-05-10T04:56:47.029Z,4.38
2023-05-10T04:59:17.067Z,4.65
2023-05-10T05:01:45.755Z,4.40
2023-05-10T05:04:15.670Z,4.20
2023-05-10T05:06:44.408Z,4.30
2023-05-10T05:09:13.072Z,3.58
2023-05-10T05:11:41.634Z,3.85
2023-05-10T05:14:10.252Z,3.28
2023-05-10T05:16:40.371Z,3.03
2023-05-10T05:19:09.100Z,2.70
2023-05-10T05:21:37.746Z,2.90
2023-05-10T05:24:07.432Z,2.88
2023-05-10T05:26:36.162Z,2.63
2023-05-10T05:29:04.892Z,2.50
2023-05-10T05:31:33.519Z,2.28
2023-05-10T05:34:03.634Z,2.60
2023-05-10T05:36:32.394Z,3.13
2023-05-10T05:39:00.945Z,2.35
2023-05-10T05:41:29.565Z,2.25
2023-05-10T05:43:58.201Z,3.20
2023-05-10T05:46:26.913Z,3.08
2023-05-10T05:48:55.675Z,3.08
2023-05-10T05:51:25.724Z,3.30
2023-05-10T05:53:54.329Z,3.23
2023-05-10T05:56:25.639Z,2.95
2023-05-10T05:58:54.274Z,2.80
2023-05-10T06:01:23.607Z,3.10
2023-05-10T06:03:53.499Z,2.50
2023-05-10T06:06:22.327Z,2.00
2023-05-10T06:08:52.559Z,2.53
2023-05-10T06:11:21.738Z,2.60
2023-05-10T06:13:50.460Z,2.22
2023-05-10T06:16:19.197Z,2.28
2023-05-10T06:18:47.712Z,1.95
2023-05-10T06:21:16.131Z,2.50
2023-05-10T06:23:45.033Z,2.63
2023-05-10T06:26:15.193Z,2.42
2023-05-10T06:28:43.860Z,2.83
2023-05-10T06:31:13.092Z,2.90
2023-05-10T06:33:41.839Z,2.83
2023-05-10T06:36:10.520Z,2.78
2023-05-10T06:38:39.126Z,2.40
2023-05-10T06:41:07.913Z,3.83
2023-05-10T06:43:41.026Z,3.35
2023-05-10T06:46:09.858Z,2.97
2023-05-10T06:48:38.578Z,2.67
2023-05-10T06:51:07.193Z,2.92
2023-05-10T06:53:35.837Z,2.15
2023-05-10T06:56:04.900Z,2.75
2023-05-10T06:58:34.247Z,2.05
2023-05-10T07:01:07.676Z,2.45
2023-05-10T07:03:36.796Z,2.53
2023-05-10T07:06:06.135Z,2.65
2023-05-10T07:08:34.733Z,2.40
2023-05-10T07:11:04.834Z,2.45
2023-05-10T07:13:34.121Z,2.08
2023-05-10T07:16:03.477Z,1.65
2023-05-10T07:18:33.647Z,1.98
2023-05-10T07:21:02.820Z,2.33
2023-05-10T07:23:31.830Z,1.95
2023-05-10T07:26:00.644Z,1.70
2023-05-10T07:28:29.319Z,1.88
2023-05-10T07:30:58.215Z,1.85
2023-05-10T07:33:26.849Z,1.20
2023-05-10T07:35:57.042Z,1.60
2023-05-10T07:38:25.699Z,1.40
2023-05-10T07:40:54.309Z,0.90
2023-05-10T07:43:22.925Z,1.42
2023-05-10T07:45:52.274Z,1.90
2023-05-10T07:48:22.786Z,0.93
2023-05-10T07:50:51.339Z,0.82
2023-05-10T07:53:21.924Z,1.05
2023-05-10T07:55:53.437Z,1.88
2023-05-10T07:58:22.454Z,1.40
2023-05-10T08:00:50.998Z,1.20
2023-05-10T08:03:19.821Z,1.00
2023-05-10T08:05:48.984Z,1.50
2023-05-10T08:08:17.580Z,1.13
2023-05-10T08:10:47.847Z,1.20
2023-05-10T08:13:16.543Z,0.98
2023-05-10T08:15:45.164Z,1.00
2023-05-10T08:18:13.908Z,0.80
2023-05-10T08:20:42.520Z,1.15
2023-05-10T08:23:11.219Z,0.90
2023-05-10T08:25:39.811Z,0.98
2023-05-10T08:28:11.273Z,0.73
2023-05-10T08:30:40.604Z,0.75
2023-05-10T08:33:09.252Z,0.63
2023-05-10T08:35:37.934Z,0.90
2023-05-10T08:38:06.617Z,0.77
2023-05-10T08:40:37.125Z,1.10
2023-05-10T08:43:08.495Z,0.70
2023-05-10T08:45:41.180Z,0.90
2023-05-10T08:48:11.420Z,0.73
2023-05-10T08:50:41.869Z,1.17
2023-05-10T08:53:14.200Z,1.00
2023-05-10T08:55:43.898Z,0.73
2023-05-10T08:58:12.450Z,0.95
2023-05-10T09:00:42.806Z,0.80
2023-05-10T09:03:12.287Z,0.80
2023-05-10T09:05:40.766Z,1.08
2023-05-10T09:08:11.131Z,1.23
2023-05-10T09:10:41.058Z,0.70
2023-05-10T09:13:11.563Z,1.23
2023-05-10T09:15:40.393Z,1.00
2023-05-10T09:18:10.420Z,0.80
2023-05-10T09:20:39.125Z,0.80
2023-05-10T09:23:07.901Z,0.95
2023-05-10T09:25:36.855Z,1.02
2023-05-10T09:28:09.787Z,0.98
2023-05-10T09:30:38.747Z,0.90
2023-05-10T09:33:07.427Z,1.02
2023-05-10T09:35:37.580Z,0.70
2023-05-10T09:38:07.456Z,1.00
2023-05-10T09:40:36.120Z,0.83
2023-05-10T09:43:07.214Z,1.00
2023-05-10T09:45:38.998Z,1.35
2023-05-10T09:48:08.913Z,1.10
2023-05-10T09:50:39.069Z,1.15
2023-05-10T09:53:07.928Z,0.70
2023-05-10T09:55:45.499Z,0.90
2023-05-10T09:58:15.502Z,1.10
2023-05-10T10:00:46.555Z,0.70
2023-05-10T10:05:46.294Z,1.13
2023-05-10T10:08:15.574Z,0.75
2023-05-10T10:10:46.506Z,0.65
2023-05-10T10:13:15.989Z,0.88
2023-05-10T10:15:47.416Z,0.73
2023-05-10T10:18:17.071Z,0.80
2023-05-10T10:20:48.157Z,1.15
2023-05-10T10:23:17.739Z,0.85
2023-05-10T10:25:49.606Z,0.90
2023-05-10T10:28:28.255Z,0.93
2023-05-10T10:31:13.642Z,0.80
2023-05-10T10:33:58.308Z,0.98
2023-05-10T10:36:29.465Z,1.17
2023-05-10T10:39:01.391Z,1.25
2023-05-10T10:41:32.279Z,1.10
2023-05-10T10:44:39.302Z,0.70
2023-05-10T10:47:12.604Z,0.88
2023-05-10T10:49:46.425Z,0.82
2023-05-10T10:52:25.246Z,0.93
2023-05-10T10:54:54.806Z,0.88
2023-05-10T10:57:23.923Z,0.75
2023-05-10T10:59:52.782Z,0.52
2023-05-10T11:02:47.201Z,0.80
2023-05-10T11:05:43.729Z,1.02
2023-05-10T11:08:17.407Z,0.65
2023-05-10T11:11:11.552Z,0.68
2023-05-10T11:13:44.503Z,1.77
2023-05-10T11:16:18.562Z,0.90
2023-05-10T11:19:04.938Z,0.93
2023-05-10T11:21:34.289Z,0.70
2023-05-10T11:24:07.234Z,1.00
2023-05-10T11:26:37.814Z,1.20
2023-05-10T11:29:06.678Z,1.00
2023-05-10T11:31:35.418Z,0.70
2023-05-10T11:34:04.410Z,0.90
2023-05-10T11:36:37.097Z,0.93
2023-05-10T11:39:07.976Z,0.77
2023-05-10T11:41:36.692Z,1.20
2023-05-10T11:44:05.351Z,0.80
2023-05-10T11:46:34.125Z,1.15
2023-05-10T11:49:05.731Z,0.82
2023-05-10T11:51:37.109Z,1.02
2023-05-10T11:54:11.052Z,0.98
2023-05-10T11:56:39.949Z,0.93
2023-05-10T11:59:09.302Z,0.73
2023-05-10T12:01:38.514Z,0.88
2023-05-10T12:04:07.627Z,1.00
2023-05-10T12:06:42.755Z,0.75
2023-05-10T12:09:12.850Z,0.77
2023-05-10T12:11:44.544Z,0.88
2023-05-10T12:14:13.529Z,0.63
2023-05-10T12:16:42.652Z,1.10
2023-05-10T12:19:11.483Z,0.80
2023-05-10T12:21:40.237Z,0.98
2023-05-10T12:24:10.205Z,0.60
2023-05-10T12:29:26.109Z,0.80
2023-05-10T12:31:56.115Z,0.80
2023-05-10T12:34:28.820Z,0.57
2023-05-10T12:36:57.741Z,0.88
2023-05-10T12:39:26.621Z,0.70
2023-05-10T12:41:56.896Z,1.20
2023-05-10T12:44:25.662Z,0.93
2023-05-10T12:46:54.198Z,0.80
2023-05-10T12:49:22.845Z,0.93
2023-05-10T12:51:51.268Z,0.88
2023-05-10T12:54:19.964Z,0.77
2023-05-10T12:56:48.556Z,0.90
2023-05-10T12:59:18.699Z,0.77
2023-05-10T13:01:48.589Z,1.27
2023-05-10T13:04:17.334Z,1.27
2023-05-10T13:06:46.012Z,0.60
2023-05-10T13:09:14.585Z,0.80
2023-05-10T13:11:43.502Z,0.70
2023-05-10T13:14:12.142Z,0.80
2023-05-10T13:16:42.089Z,1.05
2023-05-10T13:19:10.821Z,0.88
2023-05-10T13:21:39.439Z,1.23
2023-05-10T13:24:08.045Z,0.88
2023-05-10T13:26:37.522Z,1.38
2023-05-10T13:29:06.167Z,1.10
2023-05-10T13:31:34.820Z,0.63
2023-05-10T13:34:05.123Z,1.00
2023-05-10T13:36:33.554Z,0.90
2023-05-10T13:39:04.651Z,0.50
2023-05-10T13:41:33.106Z,0.80
2023-05-10T13:44:01.606Z,0.77
2023-05-10T13:46:30.387Z,0.80
2023-05-10T13:48:59.100Z,1.02
2023-05-10T13:51:29.136Z,1.05
2023-05-10T13:53:57.678Z,0.60
2023-05-10T13:56:26.199Z,0.63
2023-05-10T13:58:54.668Z,0.60
2023-05-10T14:01:23.127Z,0.88
2023-05-10T14:03:51.677Z,0.70
2023-05-10T14:06:20.376Z,0.93
2023-05-10T14:08:50.382Z,1.13
2023-05-10T14:11:18.885Z,1.05
2023-05-10T14:13:47.475Z,0.90
2023-05-10T14:16:16.168Z,1.02
2023-05-10T14:18:44.894Z,0.90
2023-05-10T14:21:13.480Z,0.85
2023-05-10T14:23:42.037Z,0.80
2023-05-10T14:26:12.319Z,0.82
2023-05-10T14:28:40.789Z,0.93
2023-05-10T14:31:09.362Z,1.10
2023-05-10T14:33:37.866Z,0.60
2023-05-10T14:36:06.844Z,0.73
2023-05-10T14:38:35.405Z,0.98
2023-05-10T14:41:04.103Z,1.10
2023-05-10T14:43:34.121Z,0.82
2023-05-10T14:46:02.969Z,0.85
2023-05-10T14:48:31.489Z,0.95
2023-05-10T14:51:00.033Z,0.60
2023-05-10T14:53:28.656Z,0.93
2023-05-10T14:55:57.257Z,1.00
2023-05-10T14:58:26.161Z,0.80
2023-05-10T15:00:56.155Z,0.80
2023-05-10T15:03:25.324Z,0.85
2023-05-10T15:05:54.477Z,0.93
2023-05-10T15:08:23.258Z,0.82
2023-05-10T15:10:51.916Z,0.80
2023-05-10T15:13:20.430Z,0.77
2023-05-10T15:15:51.911Z,0.60
2023-05-10T15:18:23.889Z,0.90
2023-05-10T15:20:52.503Z,1.05
2023-05-10T15:23:20.883Z,0.65
2023-05-10T15:25:50.920Z,0.70
2023-05-10T15:28:19.497Z,0.70
2023-05-10T15:30:47.940Z,0.75
2023-05-10T15:33:16.472Z,0.70
2023-05-10T15:35:46.590Z,0.70
2023-05-10T15:38:15.182Z,1.05
2023-05-10T15:40:43.735Z,0.90
2023-05-10T15:43:12.417Z,0.80
2023-05-10T15:45:40.901Z,0.93
2023-05-10T15:48:09.607Z,46.10
2023-05-10T15:50:38.100Z,94.90
2023-05-10T15:53:08.179Z,12.57
2023-05-10T15:55:37.688Z,7.20
2023-05-10T15:58:06.249Z,11.25
2023-05-10T16:00:35.024Z,52.30
2023-05-10T16:03:04.200Z,72.38
2023-05-10T16:05:33.866Z,21.60
2023-05-10T16:08:03.151Z,57.05
2023-05-10T16:10:34.902Z,587.83
2023-05-10T16:13:04.115Z,308.95
2023-05-10T16:15:32.570Z,452.08
2023-05-10T16:18:01.272Z,158.82
2023-05-10T16:20:30.246Z,57.78
2023-05-10T16:22:58.749Z,0.95
2023-05-10T16:25:27.285Z,3.85
2023-05-10T16:27:57.269Z,18.67
2023-05-10T16:30:27.578Z,5.85
2023-05-10T16:32:56.767Z,2.60
2023-05-10T16:35:25.337Z,1.20
2023-05-10T16:37:54.311Z,2.72
2023-05-10T16:40:24.173Z,2.50
2023-05-10T16:42:52.824Z,1.20
2023-05-10T16:45:22.984Z,1.42
2023-05-10T16:47:51.640Z,1.42
2023-05-10T16:50:20.223Z,0.65
2023-05-10T16:52:48.897Z,0.93
2023-05-10T16:55:17.660Z,1.38
2023-05-10T16:57:46.436Z,0.88
2023-05-10T17:00:16.388Z,1.13
2023-05-10T17:02:46.641Z,0.82
2023-05-10T17:05:15.484Z,0.98
2023-05-10T17:07:44.300Z,0.70
2023-05-10T17:10:13.840Z,0.40
2023-05-10T17:12:42.491Z,0.63
2023-05-10T17:15:11.936Z,0.80
2023-05-10T17:17:40.595Z,1.10
2023-05-10T17:20:12.089Z,0.90
2023-05-10T17:22:40.758Z,0.77
2023-05-10T17:25:10.019Z,0.60
2023-05-10T17:27:38.657Z,0.65
2023-05-10T17:30:11.372Z,0.88
2023-05-10T17:32:39.999Z,0.80
2023-05-10T17:35:10.934Z,0.50
2023-05-10T17:37:40.120Z,1.35
2023-05-10T17:40:10.214Z,1.10
2023-05-10T17:42:38.699Z,1.70
2023-05-10T17:45:08.528Z,1.48
2023-05-10T17:47:37.212Z,1.37
2023-05-10T17:50:06.519Z,1.00
2023-05-10T17:52:36.736Z,0.98
2023-05-10T17:55:05.815Z,1.25
2023-05-10T17:57:34.315Z,1.08
2023-05-10T18:00:05.332Z,1.40
2023-05-10T18:02:33.916Z,2.17
2023-05-10T18:05:02.727Z,1.77
2023-05-10T18:07:31.694Z,1.27
2023-05-10T18:10:02.281Z,1.40
2023-05-10T18:12:30.899Z,0.90
2023-05-10T18:14:59.467Z,0.88
2023-05-10T18:17:28.101Z,1.08
2023-05-10T18:19:56.674Z,1.17
2023-05-10T18:22:25.089Z,1.45
2023-05-10T18:24:53.372Z,0.90
2023-05-10T18:27:23.399Z,1.08
2023-05-10T18:29:52.645Z,1.02
2023-05-10T18:32:21.150Z,1.45
2023-05-10T18:34:49.414Z,1.17
2023-05-10T18:37:18.356Z,1.50
2023-05-10T18:39:46.779Z,1.23
2023-05-10T18:42:15.406Z,1.08
2023-05-10T18:44:45.386Z,1.33
2023-05-10T18:47:14.069Z,1.45
2023-05-10T18:49:42.563Z,1.08
2023-05-10T18:52:11.075Z,1.08
2023-05-10T18:54:39.922Z,0.85
2023-05-10T18:57:08.412Z,1.15
2023-05-10T18:59:37.008Z,0.85
2023-05-10T19:02:07.000Z,0.93
2023-05-10T19:04:35.693Z,1.33
2023-05-10T19:07:04.252Z,1.10
2023-05-10T19:09:32.704Z,1.10
2023-05-10T19:12:01.672Z,1.10
2023-05-10T19:14:30.146Z,1.42
2023-05-10T19:17:01.161Z,1.02
2023-05-10T19:19:32.000Z,1.00
2023-05-10T19:22:01.492Z,1.00
2023-05-10T19:24:30.106Z,1.38
2023-05-10T19:26:59.085Z,2.13
2023-05-10T19:29:27.706Z,1.73
2023-05-10T19:31:56.332Z,1.42
2023-05-10T19:34:25.022Z,1.73
2023-05-10T19:36:56.803Z,1.40
2023-05-10T19:39:26.903Z,1.20
2023-05-10T19:41:55.344Z,1.53
2023-05-10T19:44:23.878Z,1.30
2023-05-10T19:46:53.650Z,1.17
2023-05-10T19:49:22.282Z,1.63
2023-05-10T19:51:50.829Z,1.45
2023-05-10T19:54:20.971Z,1.55
2023-05-10T19:56:49.519Z,1.77
2023-05-10T19:59:18.231Z,1.83
2023-05-10T20:01:47.203Z,1.35
2023-05-10T20:04:15.715Z,2.05
2023-05-10T20:06:44.230Z,1.80
2023-05-10T20:09:12.749Z,1.58
2023-05-10T20:11:42.807Z,1.65
2023-05-10T20:14:11.303Z,2.30
2023-05-10T20:16:40.070Z,1.75
2023-05-10T20:19:08.706Z,1.77
2023-05-10T20:21:37.282Z,1.75
2023-05-10T20:24:06.428Z,1.75
2023-05-10T20:26:34.864Z,1.65
2023-05-10T20:29:04.947Z,1.75
2023-05-10T20:31:33.546Z,1.63
2023-05-10T20:34:02.096Z,1.90
2023-05-10T20:36:31.372Z,2.50
2023-05-10T20:39:00.010Z,1.65
2023-05-10T20:41:28.449Z,1.80
2023-05-10T20:43:56.971Z,1.67
2023-05-10T20:46:27.245Z,1.67
2023-05-10T20:48:55.828Z,1.85
2023-05-10T20:51:24.392Z,1.98
2023-05-10T20:53:53.080Z,2.25
2023-05-10T20:56:21.609Z,1.75
2023-05-10T20:58:50.220Z,2.65
2023-05-10T21:01:18.756Z,2.65
2023-05-10T21:03:48.708Z,2.42
2023-05-10T21:06:17.280Z,2.50
2023-05-10T21:08:45.860Z,3.00
2023-05-10T21:11:14.464Z,2.47
2023-05-10T21:13:42.964Z,2.22
2023-05-10T21:16:11.549Z,1.90
2023-05-10T21:18:40.185Z,2.25
2023-05-10T21:21:10.290Z,1.60
2023-05-10T21:23:38.736Z,1.90
2023-05-10T21:26:07.422Z,2.05
2023-05-10T21:28:37.397Z,2.20
2023-05-10T21:31:06.910Z,2.95
2023-05-10T21:33:35.532Z,2.25
2023-05-10T21:36:04.111Z,2.13
2023-05-10T21:38:34.631Z,1.92
2023-05-10T21:41:03.353Z,1.60
2023-05-10T21:43:31.930Z,2.03
2023-05-10T21:46:00.389Z,2.83
2023-05-10T21:48:28.996Z,1.95
2023-05-10T21:50:57.511Z,2.53
2023-05-10T21:53:26.034Z,2.63
2023-05-10T21:55:56.608Z,2.53
2023-05-10T21:58:25.347Z,2.40
2023-05-10T22:00:53.808Z,1.67
2023-05-10T22:03:22.463Z,1.75
2023-05-10T22:05:51.268Z,2.22
2023-05-10T22:08:19.708Z,2.50
2023-05-10T22:10:48.253Z,2.65
2023-05-10T22:13:18.445Z,2.80
2023-05-10T22:15:46.861Z,2.42
2023-05-10T22:18:15.392Z,2.83
2023-05-10T22:20:46.708Z,2.28
2023-05-10T22:23:15.388Z,2.50
2023-05-10T22:25:43.971Z,2.67
2023-05-10T22:28:12.495Z,2.95
2023-05-10T22:30:43.085Z,3.17
2023-05-10T22:33:11.748Z,3.22
2023-05-10T22:35:40.250Z,2.72
2023-05-10T22:38:08.730Z,3.05
2023-05-10T22:40:37.330Z,4.20
2023-05-10T22:43:05.874Z,3.17
2023-05-10T22:45:34.608Z,3.03
2023-05-10T22:48:05.376Z,3.03
2023-05-10T22:50:33.917Z,3.05
2023-05-10T22:53:02.332Z,3.00
2023-05-10T22:55:31.778Z,3.42
2023-05-10T22:58:00.469Z,3.20
2023-05-10T23:00:29.022Z,4.13
2023-05-10T23:02:57.747Z,3.00
2023-05-10T23:05:27.779Z,3.45
2023-05-10T23:07:56.294Z,2.83
2023-05-10T23:10:25.161Z,3.22
2023-05-10T23:12:53.644Z,3.42
2023-05-10T23:15:22.416Z,3.55
2023-05-10T23:17:50.933Z,3.10
2023-05-10T23:20:19.770Z,3.40
2023-05-10T23:22:50.322Z,3.28
2023-05-10T23:25:18.938Z,2.63
2023-05-10T23:27:47.486Z,2.70
2023-05-10T23:30:16.619Z,3.67
2023-05-10T23:32:45.360Z,2.88
2023-05-10T23:35:13.860Z,3.03
2023-05-10T23:37:42.763Z,2.78
2023-05-10T23:40:13.677Z,2.83
2023-05-10T23:42:42.266Z,2.80
2023-05-10T23:45:11.440Z,2.95
2023-05-10T23:47:39.992Z,3.25
2023-05-10T23:50:09.722Z,2.47
2023-05-10T23:52:38.236Z,3.33
2023-05-10T23:55:07.564Z,2.75
2023-05-10T23:57:37.511Z,2.85
